sensor_id;sensor_type;location;lat;lon;timestamp;P1;durP1;ratioP1;P2;durP2;ratioP2
56893;SDS011;43392;50.078;13.704;2023-08-31T00:01:31;9.00;;;5.65;;
56893;SDS011;43392;50.078;13.704;2023-08-31T00:03:58;8.80;;;5.65;;
56893;SDS011;43392;50.078;13.704;2023-08-31T00:06:25;8.50;;;5.10;;
56893;SDS011;43392;50.078;13.704;2023-08-31T00:08:53;8.48;;;5.22;;
56893;SDS011;43392;50.078;13.704;2023-08-31T00:11:20;10.55;;;5.22;;
56893;SDS011;43392;50.078;13.704;2023-08-31T00:13:47;9.15;;;5.30;;
56893;SDS011;43392;50.078;13.704;2023-08-31T00:16:13;8.77;;;5.25;;
56893;SDS011;43392;50.078;13.704;2023-08-31T00:18:40;6.60;;;4.68;;
56893;SDS011;43392;50.078;13.704;2023-08-31T00:21:07;8.38;;;5.18;;
56893;SDS011;43392;50.078;13.704;2023-08-31T00:23:34;8.80;;;4.68;;
56893;SDS011;43392;50.078;13.704;2023-08-31T00:26:03;7.82;;;5.18;;
56893;SDS011;43392;50.078;13.704;2023-08-31T00:28:30;9.23;;;5.22;;
56893;SDS011;43392;50.078;13.704;2023-08-31T00:30:57;10.77;;;5.28;;
56893;SDS011;43392;50.078;13.704;2023-08-31T00:33:28;8.15;;;5.18;;
56893;SDS011;43392;50.078;13.704;2023-08-31T00:35:55;9.10;;;5.75;;
56893;SDS011;43392;50.078;13.704;2023-08-31T00:38:22;8.15;;;5.60;;
56893;SDS011;43392;50.078;13.704;2023-08-31T00:40:50;7.72;;;5.38;;
56893;SDS011;43392;50.078;13.704;2023-08-31T00:43:18;8.40;;;5.50;;
56893;SDS011;43392;50.078;13.704;2023-08-31T00:45:44;8.57;;;5.25;;
56893;SDS011;43392;50.078;13.704;2023-08-31T00:48:14;8.10;;;5.40;;
56893;SDS011;43392;50.078;13.704;2023-08-31T00:50:42;7.45;;;5.15;;
56893;SDS011;43392;50.078;13.704;2023-08-31T00:53:09;8.88;;;4.95;;
56893;SDS011;43392;50.078;13.704;2023-08-31T00:55:35;8.55;;;4.97;;
56893;SDS011;43392;50.078;13.704;2023-08-31T00:58:04;10.05;;;5.60;;
56893;SDS011;43392;50.078;13.704;2023-08-31T01:00:33;9.50;;;5.45;;
56893;SDS011;43392;50.078;13.704;2023-08-31T01:03:18;9.98;;;5.97;;
56893;SDS011;43392;50.078;13.704;2023-08-31T01:05:55;8.77;;;5.35;;
56893;SDS011;43392;50.078;13.704;2023-08-31T01:08:28;9.77;;;5.65;;
56893;SDS011;43392;50.078;13.704;2023-08-31T01:11:13;9.70;;;6.00;;
56893;SDS011;43392;50.078;13.704;2023-08-31T01:14:00;8.65;;;4.93;;
56893;SDS011;43392;50.078;13.704;2023-08-31T01:16:30;8.35;;;5.10;;
56893;SDS011;43392;50.078;13.704;2023-08-31T01:19:01;8.05;;;5.30;;
56893;SDS011;43392;50.078;13.704;2023-08-31T01:21:33;9.48;;;5.80;;
56893;SDS011;43392;50.078;13.704;2023-08-31T01:24:05;8.43;;;5.45;;
56893;SDS011;43392;50.078;13.704;2023-08-31T01:26:33;9.07;;;5.82;;
56893;SDS011;43392;50.078;13.704;2023-08-31T01:29:00;8.43;;;5.65;;
56893;SDS011;43392;50.078;13.704;2023-08-31T01:31:27;9.20;;;5.35;;
56893;SDS011;43392;50.078;13.704;2023-08-31T01:33:54;8.38;;;5.70;;
56893;SDS011;43392;50.078;13.704;2023-08-31T01:36:23;7.90;;;5.32;;
56893;SDS011;43392;50.078;13.704;2023-08-31T01:38:55;9.50;;;5.80;;
56893;SDS011;43392;50.078;13.704;2023-08-31T01:41:27;9.52;;;5.82;;
56893;SDS011;43392;50.078;13.704;2023-08-31T01:46:24;8.77;;;5.43;;
56893;SDS011;43392;50.078;13.704;2023-08-31T01:48:50;9.32;;;5.70;;
56893;SDS011;43392;50.078;13.704;2023-08-31T01:51:17;8.82;;;5.95;;
56893;SDS011;43392;50.078;13.704;2023-08-31T01:53:44;10.60;;;5.32;;
56893;SDS011;43392;50.078;13.704;2023-08-31T01:56:11;7.85;;;5.22;;
56893;SDS011;43392;50.078;13.704;2023-08-31T01:58:40;7.72;;;4.95;;
56893;SDS011;43392;50.078;13.704;2023-08-31T02:01:07;7.88;;;5.43;;
56893;SDS011;43392;50.078;13.704;2023-08-31T02:03:33;8.30;;;5.03;;
56893;SDS011;43392;50.078;13.704;2023-08-31T02:06:00;7.82;;;4.90;;
56893;SDS011;43392;50.078;13.704;2023-08-31T02:08:26;9.55;;;5.28;;
56893;SDS011;43392;50.078;13.704;2023-08-31T02:10:53;7.68;;;5.22;;
56893;SDS011;43392;50.078;13.704;2023-08-31T02:13:20;8.15;;;5.30;;
56893;SDS011;43392;50.078;13.704;2023-08-31T02:15:50;7.95;;;5.15;;
56893;SDS011;43392;50.078;13.704;2023-08-31T02:18:17;8.07;;;4.88;;
56893;SDS011;43392;50.078;13.704;2023-08-31T02:20:44;7.85;;;4.75;;
56893;SDS011;43392;50.078;13.704;2023-08-31T02:23:11;7.22;;;5.07;;
56893;SDS011;43392;50.078;13.704;2023-08-31T02:25:38;9.57;;;5.18;;
56893;SDS011;43392;50.078;13.704;2023-08-31T02:28:04;8.02;;;5.20;;
56893;SDS011;43392;50.078;13.704;2023-08-31T02:30:31;7.75;;;5.25;;
56893;SDS011;43392;50.078;13.704;2023-08-31T02:32:59;9.68;;;5.60;;
56893;SDS011;43392;50.078;13.704;2023-08-31T02:35:26;8.18;;;5.20;;
56893;SDS011;43392;50.078;13.704;2023-08-31T02:37:52;8.70;;;5.20;;
56893;SDS011;43392;50.078;13.704;2023-08-31T02:40:19;7.80;;;5.13;;
56893;SDS011;43392;50.078;13.704;2023-08-31T02:42:46;8.68;;;5.32;;
56893;SDS011;43392;50.078;13.704;2023-08-31T02:45:13;7.93;;;4.97;;
56893;SDS011;43392;50.078;13.704;2023-08-31T02:47:40;7.72;;;5.03;;
56893;SDS011;43392;50.078;13.704;2023-08-31T02:50:08;8.68;;;5.50;;
56893;SDS011;43392;50.078;13.704;2023-08-31T02:52:35;8.27;;;5.18;;
56893;SDS011;43392;50.078;13.704;2023-08-31T02:55:02;8.20;;;5.72;;
56893;SDS011;43392;50.078;13.704;2023-08-31T02:57:28;7.95;;;5.30;;
56893;SDS011;43392;50.078;13.704;2023-08-31T02:59:55;8.38;;;5.35;;
56893;SDS011;43392;50.078;13.704;2023-08-31T03:02:22;8.15;;;5.65;;
56893;SDS011;43392;50.078;13.704;2023-08-31T03:04:48;7.95;;;5.55;;
56893;SDS011;43392;50.078;13.704;2023-08-31T03:07:17;8.27;;;5.35;;
56893;SDS011;43392;50.078;13.704;2023-08-31T03:09:47;10.43;;;5.65;;
56893;SDS011;43392;50.078;13.704;2023-08-31T03:12:14;7.80;;;5.68;;
56893;SDS011;43392;50.078;13.704;2023-08-31T03:14:41;7.97;;;5.38;;
56893;SDS011;43392;50.078;13.704;2023-08-31T03:17:08;9.05;;;6.00;;
56893;SDS011;43392;50.078;13.704;2023-08-31T03:19:34;10.02;;;5.85;;
56893;SDS011;43392;50.078;13.704;2023-08-31T03:22:01;9.65;;;5.53;;
56893;SDS011;43392;50.078;13.704;2023-08-31T03:24:29;9.05;;;5.40;;
56893;SDS011;43392;50.078;13.704;2023-08-31T03:26:55;7.63;;;5.40;;
56893;SDS011;43392;50.078;13.704;2023-08-31T03:29:22;7.68;;;5.28;;
56893;SDS011;43392;50.078;13.704;2023-08-31T03:31:49;7.13;;;4.80;;
56893;SDS011;43392;50.078;13.704;2023-08-31T03:34:15;9.05;;;4.95;;
56893;SDS011;43392;50.078;13.704;2023-08-31T03:36:42;6.75;;;4.40;;
56893;SDS011;43392;50.078;13.704;2023-08-31T03:39:09;9.50;;;5.10;;
56893;SDS011;43392;50.078;13.704;2023-08-31T03:41:37;7.30;;;5.05;;
56893;SDS011;43392;50.078;13.704;2023-08-31T03:44:04;7.13;;;4.97;;
56893;SDS011;43392;50.078;13.704;2023-08-31T03:46:30;7.13;;;4.22;;
56893;SDS011;43392;50.078;13.704;2023-08-31T03:48:57;8.30;;;4.95;;
56893;SDS011;43392;50.078;13.704;2023-08-31T03:51:24;7.00;;;4.32;;
56893;SDS011;43392;50.078;13.704;2023-08-31T03:53:50;6.97;;;4.38;;
56893;SDS011;43392;50.078;13.704;2023-08-31T03:56:17;7.18;;;4.03;;
56893;SDS011;43392;50.078;13.704;2023-08-31T03:58:45;5.88;;;3.60;;
56893;SDS011;43392;50.078;13.704;2023-08-31T04:01:11;7.20;;;3.83;;
56893;SDS011;43392;50.078;13.704;2023-08-31T04:03:39;5.88;;;3.67;;
56893;SDS011;43392;50.078;13.704;2023-08-31T04:06:06;5.35;;;3.30;;
56893;SDS011;43392;50.078;13.704;2023-08-31T04:08:32;7.40;;;3.30;;
56893;SDS011;43392;50.078;13.704;2023-08-31T04:10:59;6.15;;;3.85;;
56893;SDS011;43392;50.078;13.704;2023-08-31T04:13:25;7.05;;;3.50;;
56893;SDS011;43392;50.078;13.704;2023-08-31T04:15:53;6.72;;;3.30;;
56893;SDS011;43392;50.078;13.704;2023-08-31T04:18:20;5.97;;;2.90;;
56893;SDS011;43392;50.078;13.704;2023-08-31T04:20:48;10.75;;;3.63;;
56893;SDS011;43392;50.078;13.704;2023-08-31T04:23:17;6.68;;;3.20;;
56893;SDS011;43392;50.078;13.704;2023-08-31T04:25:44;6.50;;;3.55;;
56893;SDS011;43392;50.078;13.704;2023-08-31T04:28:12;7.10;;;3.05;;
56893;SDS011;43392;50.078;13.704;2023-08-31T04:30:39;6.93;;;2.92;;
56893;SDS011;43392;50.078;13.704;2023-08-31T04:33:07;6.70;;;2.72;;
56893;SDS011;43392;50.078;13.704;2023-08-31T04:35:34;5.05;;;2.65;;
56893;SDS011;43392;50.078;13.704;2023-08-31T04:38:00;5.65;;;2.72;;
56893;SDS011;43392;50.078;13.704;2023-08-31T04:40:27;5.63;;;2.75;;
56893;SDS011;43392;50.078;13.704;2023-08-31T04:42:54;6.18;;;2.97;;
56893;SDS011;43392;50.078;13.704;2023-08-31T04:45:21;6.38;;;2.85;;
56893;SDS011;43392;50.078;13.704;2023-08-31T04:47:48;5.18;;;2.72;;
56893;SDS011;43392;50.078;13.704;2023-08-31T04:50:17;7.18;;;2.53;;
56893;SDS011;43392;50.078;13.704;2023-08-31T04:52:44;8.48;;;2.67;;
56893;SDS011;43392;50.078;13.704;2023-08-31T04:55:12;6.80;;;2.72;;
56893;SDS011;43392;50.078;13.704;2023-08-31T04:57:39;7.00;;;2.70;;
56893;SDS011;43392;50.078;13.704;2023-08-31T05:00:06;5.22;;;2.50;;
56893;SDS011;43392;50.078;13.704;2023-08-31T05:02:34;4.68;;;2.47;;
56893;SDS011;43392;50.078;13.704;2023-08-31T05:05:01;6.90;;;3.00;;
56893;SDS011;43392;50.078;13.704;2023-08-31T05:07:29;6.15;;;3.10;;
56893;SDS011;43392;50.078;13.704;2023-08-31T05:09:55;8.15;;;3.20;;
56893;SDS011;43392;50.078;13.704;2023-08-31T05:12:22;6.57;;;2.47;;
56893;SDS011;43392;50.078;13.704;2023-08-31T05:14:49;5.18;;;2.50;;
56893;SDS011;43392;50.078;13.704;2023-08-31T05:17:15;4.72;;;2.70;;
56893;SDS011;43392;50.078;13.704;2023-08-31T05:19:42;3.88;;;2.40;;
56893;SDS011;43392;50.078;13.704;2023-08-31T05:22:08;4.93;;;2.83;;
56893;SDS011;43392;50.078;13.704;2023-08-31T05:24:36;5.70;;;2.58;;
56893;SDS011;43392;50.078;13.704;2023-08-31T05:27:03;4.50;;;2.50;;
56893;SDS011;43392;50.078;13.704;2023-08-31T05:29:30;4.70;;;2.40;;
56893;SDS011;43392;50.078;13.704;2023-08-31T05:31:57;4.30;;;2.55;;
56893;SDS011;43392;50.078;13.704;2023-08-31T05:34:24;5.50;;;2.38;;
56893;SDS011;43392;50.078;13.704;2023-08-31T05:36:51;6.00;;;2.40;;
56893;SDS011;43392;50.078;13.704;2023-08-31T05:39:17;5.18;;;2.40;;
56893;SDS011;43392;50.078;13.704;2023-08-31T05:41:45;6.03;;;2.30;;
56893;SDS011;43392;50.078;13.704;2023-08-31T05:44:12;4.68;;;2.55;;
56893;SDS011;43392;50.078;13.704;2023-08-31T05:46:39;3.72;;;2.28;;
56893;SDS011;43392;50.078;13.704;2023-08-31T05:49:06;5.32;;;2.88;;
56893;SDS011;43392;50.078;13.704;2023-08-31T05:51:33;4.78;;;2.70;;
56893;SDS011;43392;50.078;13.704;2023-08-31T05:53:59;6.18;;;2.83;;
56893;SDS011;43392;50.078;13.704;2023-08-31T05:56:26;3.72;;;2.38;;
56893;SDS011;43392;50.078;13.704;2023-08-31T05:58:54;5.10;;;2.53;;
56893;SDS011;43392;50.078;13.704;2023-08-31T06:01:21;6.35;;;2.88;;
56893;SDS011;43392;50.078;13.704;2023-08-31T06:03:48;4.82;;;2.50;;
56893;SDS011;43392;50.078;13.704;2023-08-31T06:06:14;5.93;;;2.65;;
56893;SDS011;43392;50.078;13.704;2023-08-31T06:08:41;4.88;;;2.45;;
56893;SDS011;43392;50.078;13.704;2023-08-31T06:11:08;4.63;;;2.45;;
56893;SDS011;43392;50.078;13.704;2023-08-31T06:13:35;4.85;;;2.53;;
56893;SDS011;43392;50.078;13.704;2023-08-31T06:16:03;5.47;;;3.00;;
56893;SDS011;43392;50.078;13.704;2023-08-31T06:18:30;4.68;;;2.63;;
56893;SDS011;43392;50.078;13.704;2023-08-31T06:20:56;4.90;;;2.40;;
56893;SDS011;43392;50.078;13.704;2023-08-31T06:23:23;6.00;;;2.47;;
56893;SDS011;43392;50.078;13.704;2023-08-31T06:25:50;6.50;;;2.70;;
56893;SDS011;43392;50.078;13.704;2023-08-31T06:28:16;4.43;;;2.10;;
56893;SDS011;43392;50.078;13.704;2023-08-31T06:30:43;8.23;;;2.65;;
56893;SDS011;43392;50.078;13.704;2023-08-31T06:33:13;2.72;;;1.83;;
56893;SDS011;43392;50.078;13.704;2023-08-31T06:35:40;5.25;;;2.30;;
56893;SDS011;43392;50.078;13.704;2023-08-31T06:38:06;3.55;;;2.00;;
56893;SDS011;43392;50.078;13.704;2023-08-31T06:40:33;5.47;;;2.10;;
56893;SDS011;43392;50.078;13.704;2023-08-31T06:42:59;5.63;;;2.00;;
56893;SDS011;43392;50.078;13.704;2023-08-31T06:45:27;3.78;;;1.80;;
56893;SDS011;43392;50.078;13.704;2023-08-31T06:47:54;4.20;;;2.00;;
56893;SDS011;43392;50.078;13.704;2023-08-31T06:50:22;5.75;;;1.95;;
56893;SDS011;43392;50.078;13.704;2023-08-31T06:52:48;4.47;;;1.90;;
56893;SDS011;43392;50.078;13.704;2023-08-31T06:55:15;3.22;;;1.58;;
56893;SDS011;43392;50.078;13.704;2023-08-31T06:57:41;5.88;;;2.20;;
56893;SDS011;43392;50.078;13.704;2023-08-31T07:00:09;3.92;;;1.70;;
56893;SDS011;43392;50.078;13.704;2023-08-31T07:02:39;3.78;;;1.88;;
56893;SDS011;43392;50.078;13.704;2023-08-31T07:05:06;3.55;;;1.70;;
56893;SDS011;43392;50.078;13.704;2023-08-31T07:07:34;2.42;;;1.50;;
56893;SDS011;43392;50.078;13.704;2023-08-31T07:10:00;4.28;;;1.65;;
56893;SDS011;43392;50.078;13.704;2023-08-31T07:12:27;3.67;;;1.63;;
56893;SDS011;43392;50.078;13.704;2023-08-31T07:14:54;6.30;;;2.00;;
56893;SDS011;43392;50.078;13.704;2023-08-31T07:17:20;4.13;;;1.67;;
56893;SDS011;43392;50.078;13.704;2023-08-31T07:19:47;2.83;;;1.65;;
56893;SDS011;43392;50.078;13.704;2023-08-31T07:22:13;3.80;;;1.80;;
56893;SDS011;43392;50.078;13.704;2023-08-31T07:24:42;3.55;;;1.58;;
56893;SDS011;43392;50.078;13.704;2023-08-31T07:27:09;4.70;;;1.83;;
56893;SDS011;43392;50.078;13.704;2023-08-31T07:29:36;3.35;;;1.70;;
56893;SDS011;43392;50.078;13.704;2023-08-31T07:32:02;2.75;;;1.55;;
56893;SDS011;43392;50.078;13.704;2023-08-31T07:34:29;6.35;;;2.03;;
56893;SDS011;43392;50.078;13.704;2023-08-31T07:36:56;3.97;;;1.80;;
56893;SDS011;43392;50.078;13.704;2023-08-31T07:39:23;3.85;;;1.75;;
56893;SDS011;43392;50.078;13.704;2023-08-31T07:41:52;4.47;;;1.88;;
56893;SDS011;43392;50.078;13.704;2023-08-31T07:44:20;5.95;;;1.90;;
56893;SDS011;43392;50.078;13.704;2023-08-31T07:46:47;5.50;;;1.70;;
56893;SDS011;43392;50.078;13.704;2023-08-31T07:49:14;4.80;;;1.80;;
56893;SDS011;43392;50.078;13.704;2023-08-31T07:51:40;4.47;;;1.83;;
56893;SDS011;43392;50.078;13.704;2023-08-31T07:54:07;5.70;;;1.90;;
56893;SDS011;43392;50.078;13.704;2023-08-31T07:56:33;3.78;;;1.77;;
56893;SDS011;43392;50.078;13.704;2023-08-31T07:59:01;3.67;;;1.73;;
56893;SDS011;43392;50.078;13.704;2023-08-31T08:01:28;3.13;;;1.70;;
56893;SDS011;43392;50.078;13.704;2023-08-31T08:03:54;3.90;;;1.95;;
56893;SDS011;43392;50.078;13.704;2023-08-31T08:06:21;4.40;;;1.70;;
56893;SDS011;43392;50.078;13.704;2023-08-31T08:08:48;5.28;;;1.55;;
56893;SDS011;43392;50.078;13.704;2023-08-31T08:11:14;3.28;;;1.55;;
56893;SDS011;43392;50.078;13.704;2023-08-31T08:13:41;3.45;;;1.90;;
56893;SDS011;43392;50.078;13.704;2023-08-31T08:16:09;3.90;;;1.70;;
56893;SDS011;43392;50.078;13.704;2023-08-31T08:18:36;4.15;;;1.80;;
56893;SDS011;43392;50.078;13.704;2023-08-31T08:21:02;4.38;;;1.60;;
56893;SDS011;43392;50.078;13.704;2023-08-31T08:23:29;5.70;;;2.10;;
56893;SDS011;43392;50.078;13.704;2023-08-31T08:25:56;3.42;;;1.58;;
56893;SDS011;43392;50.078;13.704;2023-08-31T08:28:24;8.23;;;2.05;;
56893;SDS011;43392;50.078;13.704;2023-08-31T08:30:51;5.72;;;2.15;;
56893;SDS011;43392;50.078;13.704;2023-08-31T08:33:19;4.22;;;1.80;;
56893;SDS011;43392;50.078;13.704;2023-08-31T08:35:45;4.35;;;2.15;;
56893;SDS011;43392;50.078;13.704;2023-08-31T08:38:12;5.40;;;1.98;;
56893;SDS011;43392;50.078;13.704;2023-08-31T08:40:38;5.07;;;1.83;;
56893;SDS011;43392;50.078;13.704;2023-08-31T08:43:06;3.33;;;1.60;;
56893;SDS011;43392;50.078;13.704;2023-08-31T08:45:35;5.43;;;2.00;;
56893;SDS011;43392;50.078;13.704;2023-08-31T08:48:04;4.15;;;1.92;;
56893;SDS011;43392;50.078;13.704;2023-08-31T08:50:35;5.13;;;2.20;;
56893;SDS011;43392;50.078;13.704;2023-08-31T08:53:02;9.65;;;1.88;;
56893;SDS011;43392;50.078;13.704;2023-08-31T08:55:30;5.13;;;2.05;;
56893;SDS011;43392;50.078;13.704;2023-08-31T08:57:57;4.88;;;2.25;;
56893;SDS011;43392;50.078;13.704;2023-08-31T09:00:25;5.03;;;2.13;;
56893;SDS011;43392;50.078;13.704;2023-08-31T09:02:52;4.28;;;1.90;;
56893;SDS011;43392;50.078;13.704;2023-08-31T09:05:19;7.63;;;2.30;;
56893;SDS011;43392;50.078;13.704;2023-08-31T09:10:33;5.45;;;2.00;;
56893;SDS011;43392;50.078;13.704;2023-08-31T09:13:01;3.90;;;1.90;;
56893;SDS011;43392;50.078;13.704;2023-08-31T09:15:41;5.28;;;2.05;;
56893;SDS011;43392;50.078;13.704;2023-08-31T09:18:16;4.38;;;2.15;;
56893;SDS011;43392;50.078;13.704;2023-08-31T09:20:48;4.45;;;2.05;;
56893;SDS011;43392;50.078;13.704;2023-08-31T09:23:17;5.38;;;2.00;;
56893;SDS011;43392;50.078;13.704;2023-08-31T09:25:44;6.13;;;2.05;;
56893;SDS011;43392;50.078;13.704;2023-08-31T09:28:13;3.78;;;1.90;;
56893;SDS011;43392;50.078;13.704;2023-08-31T09:30:41;5.00;;;2.10;;
56893;SDS011;43392;50.078;13.704;2023-08-31T09:33:08;4.57;;;2.13;;
56893;SDS011;43392;50.078;13.704;2023-08-31T09:35:39;4.70;;;2.00;;
56893;SDS011;43392;50.078;13.704;2023-08-31T09:38:09;6.93;;;2.08;;
56893;SDS011;43392;50.078;13.704;2023-08-31T09:40:37;4.75;;;2.20;;
56893;SDS011;43392;50.078;13.704;2023-08-31T09:43:04;5.43;;;1.90;;
56893;SDS011;43392;50.078;13.704;2023-08-31T09:45:31;5.03;;;1.90;;
56893;SDS011;43392;50.078;13.704;2023-08-31T09:47:59;3.58;;;1.67;;
56893;SDS011;43392;50.078;13.704;2023-08-31T09:50:28;6.07;;;1.60;;
56893;SDS011;43392;50.078;13.704;2023-08-31T09:52:57;4.90;;;1.98;;
56893;SDS011;43392;50.078;13.704;2023-08-31T09:55:27;4.57;;;1.80;;
56893;SDS011;43392;50.078;13.704;2023-08-31T09:57:56;4.38;;;1.63;;
56893;SDS011;43392;50.078;13.704;2023-08-31T10:00:25;5.18;;;1.95;;
56893;SDS011;43392;50.078;13.704;2023-08-31T10:02:53;2.30;;;1.40;;
56893;SDS011;43392;50.078;13.704;2023-08-31T10:05:22;4.15;;;1.50;;
56893;SDS011;43392;50.078;13.704;2023-08-31T10:07:48;2.15;;;1.38;;
56893;SDS011;43392;50.078;13.704;2023-08-31T10:10:16;4.35;;;1.50;;
56893;SDS011;43392;50.078;13.704;2023-08-31T10:12:44;3.78;;;1.40;;
56893;SDS011;43392;50.078;13.704;2023-08-31T10:15:13;2.83;;;1.25;;
56893;SDS011;43392;50.078;13.704;2023-08-31T10:17:41;5.07;;;1.60;;
56893;SDS011;43392;50.078;13.704;2023-08-31T10:20:09;7.10;;;2.42;;
56893;SDS011;43392;50.078;13.704;2023-08-31T10:22:37;5.20;;;2.10;;
56893;SDS011;43392;50.078;13.704;2023-08-31T10:25:04;5.85;;;2.28;;
56893;SDS011;43392;50.078;13.704;2023-08-31T10:27:41;5.93;;;2.30;;
56893;SDS011;43392;50.078;13.704;2023-08-31T10:30:20;6.85;;;2.92;;
56893;SDS011;43392;50.078;13.704;2023-08-31T10:35:48;5.75;;;2.10;;
56893;SDS011;43392;50.078;13.704;2023-08-31T10:38:15;4.22;;;2.03;;
56893;SDS011;43392;50.078;13.704;2023-08-31T10:40:44;4.78;;;2.00;;
56893;SDS011;43392;50.078;13.704;2023-08-31T10:43:26;4.45;;;2.13;;
56893;SDS011;43392;50.078;13.704;2023-08-31T10:45:54;5.43;;;2.00;;
56893;SDS011;43392;50.078;13.704;2023-08-31T10:48:20;4.90;;;2.00;;
56893;SDS011;43392;50.078;13.704;2023-08-31T10:50:47;3.90;;;1.75;;
56893;SDS011;43392;50.078;13.704;2023-08-31T10:53:13;4.65;;;1.80;;
56893;SDS011;43392;50.078;13.704;2023-08-31T10:55:49;3.90;;;1.90;;
56893;SDS011;43392;50.078;13.704;2023-08-31T10:58:16;4.28;;;1.83;;
56893;SDS011;43392;50.078;13.704;2023-08-31T11:00:46;3.05;;;1.60;;
56893;SDS011;43392;50.078;13.704;2023-08-31T11:03:15;3.33;;;1.65;;
56893;SDS011;43392;50.078;13.704;2023-08-31T11:05:50;4.15;;;1.80;;
56893;SDS011;43392;50.078;13.704;2023-08-31T11:08:17;3.92;;;1.65;;
56893;SDS011;43392;50.078;13.704;2023-08-31T11:10:48;3.00;;;1.30;;
56893;SDS011;43392;50.078;13.704;2023-08-31T11:13:15;3.60;;;1.65;;
56893;SDS011;43392;50.078;13.704;2023-08-31T11:15:44;6.72;;;1.98;;
56893;SDS011;43392;50.078;13.704;2023-08-31T11:18:12;4.28;;;1.33;;
56893;SDS011;43392;50.078;13.704;2023-08-31T11:20:43;5.43;;;1.67;;
56893;SDS011;43392;50.078;13.704;2023-08-31T11:23:10;2.85;;;1.48;;
56893;SDS011;43392;50.078;13.704;2023-08-31T11:25:37;3.50;;;1.58;;
56893;SDS011;43392;50.078;13.704;2023-08-31T11:28:05;4.85;;;1.52;;
56893;SDS011;43392;50.078;13.704;2023-08-31T11:30:33;5.88;;;1.60;;
56893;SDS011;43392;50.078;13.704;2023-08-31T11:33:02;4.80;;;1.52;;
56893;SDS011;43392;50.078;13.704;2023-08-31T11:35:31;3.53;;;1.40;;
56893;SDS011;43392;50.078;13.704;2023-08-31T11:38:01;5.50;;;1.58;;
56893;SDS011;43392;50.078;13.704;2023-08-31T11:40:28;4.55;;;1.35;;
56893;SDS011;43392;50.078;13.704;2023-08-31T11:42:56;3.28;;;1.42;;
56893;SDS011;43392;50.078;13.704;2023-08-31T11:45:25;3.30;;;1.48;;
56893;SDS011;43392;50.078;13.704;2023-08-31T11:47:53;3.50;;;1.60;;
56893;SDS011;43392;50.078;13.704;2023-08-31T11:50:21;3.22;;;1.55;;
56893;SDS011;43392;50.078;13.704;2023-08-31T11:52:49;3.72;;;1.27;;
56893;SDS011;43392;50.078;13.704;2023-08-31T11:55:19;3.97;;;1.23;;
56893;SDS011;43392;50.078;13.704;2023-08-31T11:57:48;4.43;;;1.50;;
56893;SDS011;43392;50.078;13.704;2023-08-31T12:00:16;3.60;;;1.50;;
56893;SDS011;43392;50.078;13.704;2023-08-31T12:02:44;5.03;;;1.52;;
56893;SDS011;43392;50.078;13.704;2023-08-31T12:05:14;3.03;;;1.42;;
56893;SDS011;43392;50.078;13.704;2023-08-31T12:07:42;3.42;;;1.35;;
56893;SDS011;43392;50.078;13.704;2023-08-31T12:10:09;2.78;;;1.45;;
56893;SDS011;43392;50.078;13.704;2023-08-31T12:12:37;4.65;;;1.30;;
56893;SDS011;43392;50.078;13.704;2023-08-31T12:15:05;3.28;;;1.40;;
56893;SDS011;43392;50.078;13.704;2023-08-31T12:17:36;2.65;;;1.50;;
56893;SDS011;43392;50.078;13.704;2023-08-31T12:20:04;4.85;;;1.48;;
56893;SDS011;43392;50.078;13.704;2023-08-31T12:22:32;4.88;;;1.60;;
56893;SDS011;43392;50.078;13.704;2023-08-31T12:25:00;2.80;;;1.10;;
56893;SDS011;43392;50.078;13.704;2023-08-31T12:27:27;4.50;;;1.30;;
56893;SDS011;43392;50.078;13.704;2023-08-31T12:29:56;2.70;;;1.38;;
56893;SDS011;43392;50.078;13.704;2023-08-31T12:32:23;4.90;;;1.30;;
56893;SDS011;43392;50.078;13.704;2023-08-31T12:34:50;4.30;;;1.50;;
56893;SDS011;43392;50.078;13.704;2023-08-31T12:37:17;5.47;;;1.52;;
56893;SDS011;43392;50.078;13.704;2023-08-31T12:39:43;3.20;;;1.50;;
56893;SDS011;43392;50.078;13.704;2023-08-31T12:42:11;7.25;;;2.15;;
56893;SDS011;43392;50.078;13.704;2023-08-31T12:44:37;4.05;;;1.75;;
56893;SDS011;43392;50.078;13.704;2023-08-31T12:47:06;4.80;;;1.58;;
56893;SDS011;43392;50.078;13.704;2023-08-31T12:49:32;5.38;;;1.45;;
56893;SDS011;43392;50.078;13.704;2023-08-31T12:51:59;5.70;;;2.00;;
56893;SDS011;43392;50.078;13.704;2023-08-31T12:54:26;2.80;;;1.30;;
56893;SDS011;43392;50.078;13.704;2023-08-31T12:56:52;3.75;;;1.30;;
56893;SDS011;43392;50.078;13.704;2023-08-31T12:59:19;3.08;;;1.30;;
56893;SDS011;43392;50.078;13.704;2023-08-31T13:01:45;3.25;;;1.40;;
56893;SDS011;43392;50.078;13.704;2023-08-31T13:04:13;4.47;;;1.50;;
56893;SDS011;43392;50.078;13.704;2023-08-31T13:06:40;3.40;;;1.52;;
56893;SDS011;43392;50.078;13.704;2023-08-31T13:09:07;2.70;;;1.33;;
56893;SDS011;43392;50.078;13.704;2023-08-31T13:11:34;2.85;;;1.20;;
56893;SDS011;43392;50.078;13.704;2023-08-31T13:14:00;3.50;;;1.42;;
56893;SDS011;43392;50.078;13.704;2023-08-31T13:16:27;4.53;;;1.63;;
56893;SDS011;43392;50.078;13.704;2023-08-31T13:18:54;2.97;;;1.48;;
56893;SDS011;43392;50.078;13.704;2023-08-31T13:21:22;2.55;;;1.23;;
56893;SDS011;43392;50.078;13.704;2023-08-31T13:23:48;4.47;;;1.70;;
56893;SDS011;43392;50.078;13.704;2023-08-31T13:26:15;4.47;;;1.70;;
56893;SDS011;43392;50.078;13.704;2023-08-31T13:28:41;3.97;;;1.60;;
56893;SDS011;43392;50.078;13.704;2023-08-31T13:31:08;4.10;;;1.70;;
56893;SDS011;43392;50.078;13.704;2023-08-31T13:33:36;3.63;;;1.60;;
56893;SDS011;43392;50.078;13.704;2023-08-31T13:36:03;4.22;;;1.40;;
56893;SDS011;43392;50.078;13.704;2023-08-31T13:38:31;4.63;;;1.55;;
56893;SDS011;43392;50.078;13.704;2023-08-31T13:40:58;4.75;;;1.83;;
56893;SDS011;43392;50.078;13.704;2023-08-31T13:43:24;5.60;;;2.00;;
56893;SDS011;43392;50.078;13.704;2023-08-31T13:45:51;4.80;;;1.85;;
56893;SDS011;43392;50.078;13.704;2023-08-31T13:48:18;5.43;;;1.95;;
56893;SDS011;43392;50.078;13.704;2023-08-31T13:50:47;7.85;;;2.00;;
56893;SDS011;43392;50.078;13.704;2023-08-31T13:53:14;4.38;;;2.03;;
56893;SDS011;43392;50.078;13.704;2023-08-31T13:55:42;4.47;;;1.58;;
56893;SDS011;43392;50.078;13.704;2023-08-31T13:58:08;6.97;;;1.75;;
56893;SDS011;43392;50.078;13.704;2023-08-31T14:00:35;7.25;;;1.88;;
56893;SDS011;43392;50.078;13.704;2023-08-31T14:03:03;9.05;;;2.40;;
56893;SDS011;43392;50.078;13.704;2023-08-31T14:05:30;4.30;;;1.80;;
56893;SDS011;43392;50.078;13.704;2023-08-31T14:07:57;6.90;;;1.83;;
56893;SDS011;43392;50.078;13.704;2023-08-31T14:10:26;3.58;;;1.80;;
56893;SDS011;43392;50.078;13.704;2023-08-31T14:12:54;4.60;;;1.80;;
56893;SDS011;43392;50.078;13.704;2023-08-31T14:15:21;4.65;;;2.00;;
56893;SDS011;43392;50.078;13.704;2023-08-31T14:17:49;4.90;;;1.85;;
56893;SDS011;43392;50.078;13.704;2023-08-31T14:22:44;4.43;;;1.65;;
56893;SDS011;43392;50.078;13.704;2023-08-31T14:25:11;3.63;;;1.60;;
56893;SDS011;43392;50.078;13.704;2023-08-31T14:27:38;3.10;;;1.60;;
56893;SDS011;43392;50.078;13.704;2023-08-31T14:30:06;3.50;;;1.77;;
56893;SDS011;43392;50.078;13.704;2023-08-31T14:32:34;4.65;;;1.90;;
56893;SDS011;43392;50.078;13.704;2023-08-31T14:35:00;3.60;;;1.80;;
56893;SDS011;43392;50.078;13.704;2023-08-31T14:37:29;3.60;;;1.83;;
56893;SDS011;43392;50.078;13.704;2023-08-31T14:39:55;3.85;;;1.85;;
56893;SDS011;43392;50.078;13.704;2023-08-31T14:42:22;3.85;;;1.65;;
56893;SDS011;43392;50.078;13.704;2023-08-31T14:44:48;4.88;;;1.70;;
56893;SDS011;43392;50.078;13.704;2023-08-31T14:47:16;3.53;;;1.80;;